Terminal Aerodrome Forecast
Issued by NWS Knoxville/Tri Cities, TN

Home | Current Version | Previous Version | Text Only | Print | Product List | Glossary On
Versions: 1 2 3 4 5 6 7 8 9 10 11 12 13 14 15
000
FTUS44 KMRX 260521
TAFCHA
TAF
KCHA 260521Z 2606/2706 36003KT P6SM SKC
     FM261700 36007KT P6SM SCT050 SCT150
     FM270200 36003KT P6SM BKN150=

USA.gov is the U.S. government's official web portal to all federal, state and local government web resources and services.